sensor_id;sensor_type;location;lat;lon;timestamp;pressure;altitude;pressure_sealevel;temperature;humidity
7614;BME280;3848;42.016;23.098;2023-06-22T00:01:19;97419.59;;;21.30;100.00
7614;BME280;3848;42.016;23.098;2023-06-22T00:03:47;97413.75;;;21.26;100.00
7614;BME280;3848;42.016;23.098;2023-06-22T00:06:14;97418.91;;;21.26;100.00
7614;BME280;3848;42.016;23.098;2023-06-22T00:08:41;97414.81;;;21.21;100.00
7614;BME280;3848;42.016;23.098;2023-06-22T00:11:09;97433.88;;;21.18;100.00
7614;BME280;3848;42.016;23.098;2023-06-22T00:13:37;97429.91;;;21.11;100.00
7614;BME280;3848;42.016;23.098;2023-06-22T00:16:04;97440.66;;;21.02;100.00
7614;BME280;3848;42.016;23.098;2023-06-22T00:18:31;97439.41;;;20.92;100.00
7614;BME280;3848;42.016;23.098;2023-06-22T00:20:58;97438.97;;;20.82;100.00
7614;BME280;3848;42.016;23.098;2023-06-22T00:23:25;97432.59;;;20.70;100.00
7614;BME280;3848;42.016;23.098;2023-06-22T00:25:52;97434.47;;;20.67;100.00
7614;BME280;3848;42.016;23.098;2023-06-22T00:28:20;97413.56;;;20.53;100.00
7614;BME280;3848;42.016;23.098;2023-06-22T00:30:48;97431.97;;;20.65;100.00
7614;BME280;3848;42.016;23.098;2023-06-22T00:33:15;97420.19;;;20.58;100.00
7614;BME280;3848;42.016;23.098;2023-06-22T00:35:42;97423.56;;;20.60;100.00
7614;BME280;3848;42.016;23.098;2023-06-22T00:38:09;97422.94;;;20.55;100.00
7614;BME280;3848;42.016;23.098;2023-06-22T00:40:36;97413.72;;;20.50;100.00
7614;BME280;3848;42.016;23.098;2023-06-22T00:43:03;97421.59;;;20.47;100.00
7614;BME280;3848;42.016;23.098;2023-06-22T00:45:31;97420.88;;;20.43;100.00
7614;BME280;3848;42.016;23.098;2023-06-22T00:47:58;97423.59;;;20.38;100.00
7614;BME280;3848;42.016;23.098;2023-06-22T00:50:27;97421.28;;;20.32;100.00
7614;BME280;3848;42.016;23.098;2023-06-22T00:53:01;97418.72;;;20.32;100.00
7614;BME280;3848;42.016;23.098;2023-06-22T00:55:33;97398.28;;;20.28;100.00
7614;BME280;3848;42.016;23.098;2023-06-22T00:58:02;97414.31;;;20.34;100.00
7614;BME280;3848;42.016;23.098;2023-06-22T01:00:34;97410.06;;;20.33;100.00
7614;BME280;3848;42.016;23.098;2023-06-22T01:03:01;97414.66;;;20.27;100.00
7614;BME280;3848;42.016;23.098;2023-06-22T01:05:28;97418.97;;;20.26;100.00
7614;BME280;3848;42.016;23.098;2023-06-22T01:08:04;97412.97;;;20.26;100.00
7614;BME280;3848;42.016;23.098;2023-06-22T01:10:38;97414.94;;;20.21;100.00
7614;BME280;3848;42.016;23.098;2023-06-22T01:13:12;97425.88;;;20.26;100.00
7614;BME280;3848;42.016;23.098;2023-06-22T01:15:45;97415.75;;;20.21;100.00
7614;BME280;3848;42.016;23.098;2023-06-22T01:18:17;97427.50;;;20.28;100.00
7614;BME280;3848;42.016;23.098;2023-06-22T01:20:45;97430.28;;;20.24;100.00
7614;BME280;3848;42.016;23.098;2023-06-22T01:23:26;97426.84;;;20.23;100.00
7614;BME280;3848;42.016;23.098;2023-06-22T01:26:06;97411.69;;;20.16;100.00
7614;BME280;3848;42.016;23.098;2023-06-22T01:28:46;97428.00;;;20.16;100.00
7614;BME280;3848;42.016;23.098;2023-06-22T01:31:16;97428.97;;;20.14;100.00
7614;BME280;3848;42.016;23.098;2023-06-22T01:33:45;97421.50;;;20.07;100.00
7614;BME280;3848;42.016;23.098;2023-06-22T01:36:13;97427.91;;;19.97;100.00
7614;BME280;3848;42.016;23.098;2023-06-22T01:38:42;97433.47;;;19.88;100.00
7614;BME280;3848;42.016;23.098;2023-06-22T01:41:09;97437.06;;;19.84;100.00
7614;BME280;3848;42.016;23.098;2023-06-22T01:43:36;97430.72;;;19.71;100.00
7614;BME280;3848;42.016;23.098;2023-06-22T01:46:05;97440.19;;;19.70;100.00
7614;BME280;3848;42.016;23.098;2023-06-22T01:48:32;97437.16;;;19.61;100.00
7614;BME280;3848;42.016;23.098;2023-06-22T01:50:59;97443.41;;;19.54;100.00
7614;BME280;3848;42.016;23.098;2023-06-22T01:53:26;97440.34;;;19.44;100.00
7614;BME280;3848;42.016;23.098;2023-06-22T01:55:53;97430.09;;;19.42;100.00
7614;BME280;3848;42.016;23.098;2023-06-22T01:58:21;97443.19;;;19.36;100.00
7614;BME280;3848;42.016;23.098;2023-06-22T02:00:53;97443.38;;;19.32;100.00
7614;BME280;3848;42.016;23.098;2023-06-22T02:03:27;97433.41;;;19.23;100.00
7614;BME280;3848;42.016;23.098;2023-06-22T02:06:01;97447.81;;;19.28;100.00
7614;BME280;3848;42.016;23.098;2023-06-22T02:08:31;97450.38;;;19.28;100.00
7614;BME280;3848;42.016;23.098;2023-06-22T02:10:59;97436.25;;;19.15;100.00
7614;BME280;3848;42.016;23.098;2023-06-22T02:13:27;97460.03;;;19.23;100.00
7614;BME280;3848;42.016;23.098;2023-06-22T02:15:54;97473.16;;;19.17;100.00
7614;BME280;3848;42.016;23.098;2023-06-22T02:18:23;97480.97;;;19.14;100.00
7614;BME280;3848;42.016;23.098;2023-06-22T02:20:50;97482.16;;;19.05;100.00
7614;BME280;3848;42.016;23.098;2023-06-22T02:23:18;97482.22;;;19.04;100.00
7614;BME280;3848;42.016;23.098;2023-06-22T02:25:45;97473.88;;;18.97;100.00
7614;BME280;3848;42.016;23.098;2023-06-22T02:28:12;97461.38;;;18.86;100.00
7614;BME280;3848;42.016;23.098;2023-06-22T02:30:38;97482.53;;;18.95;100.00
7614;BME280;3848;42.016;23.098;2023-06-22T02:33:05;97469.88;;;18.88;100.00
7614;BME280;3848;42.016;23.098;2023-06-22T02:35:33;97475.75;;;18.92;100.00
7614;BME280;3848;42.016;23.098;2023-06-22T02:38:03;97472.34;;;18.92;100.00
7614;BME280;3848;42.016;23.098;2023-06-22T02:40:30;97491.97;;;18.94;100.00
7614;BME280;3848;42.016;23.098;2023-06-22T02:42:57;97497.09;;;18.96;100.00
7614;BME280;3848;42.016;23.098;2023-06-22T02:45:27;97492.16;;;18.89;100.00
7614;BME280;3848;42.016;23.098;2023-06-22T02:47:54;97490.59;;;18.85;100.00
7614;BME280;3848;42.016;23.098;2023-06-22T02:50:21;97485.59;;;18.81;100.00
7614;BME280;3848;42.016;23.098;2023-06-22T02:52:49;97482.50;;;18.71;100.00
7614;BME280;3848;42.016;23.098;2023-06-22T02:55:16;97488.59;;;18.69;100.00
7614;BME280;3848;42.016;23.098;2023-06-22T02:57:43;97480.03;;;18.68;100.00
7614;BME280;3848;42.016;23.098;2023-06-22T03:00:13;97473.19;;;18.67;100.00
7614;BME280;3848;42.016;23.098;2023-06-22T03:02:43;97475.00;;;18.65;100.00
7614;BME280;3848;42.016;23.098;2023-06-22T03:05:10;97475.97;;;18.61;100.00
7614;BME280;3848;42.016;23.098;2023-06-22T03:07:40;97477.81;;;18.57;100.00
7614;BME280;3848;42.016;23.098;2023-06-22T03:10:10;97482.19;;;18.55;100.00
7614;BME280;3848;42.016;23.098;2023-06-22T03:12:37;97477.22;;;18.49;100.00
7614;BME280;3848;42.016;23.098;2023-06-22T03:15:06;97481.56;;;18.47;100.00
7614;BME280;3848;42.016;23.098;2023-06-22T03:17:33;97478.50;;;18.38;100.00
7614;BME280;3848;42.016;23.098;2023-06-22T03:20:00;97481.00;;;18.39;100.00
7614;BME280;3848;42.016;23.098;2023-06-22T03:22:32;97477.44;;;18.43;100.00
7614;BME280;3848;42.016;23.098;2023-06-22T03:24:59;97478.28;;;18.44;100.00
7614;BME280;3848;42.016;23.098;2023-06-22T03:27:27;97494.28;;;18.52;100.00
7614;BME280;3848;42.016;23.098;2023-06-22T03:29:54;97461.75;;;18.24;100.00
7614;BME280;3848;42.016;23.098;2023-06-22T03:32:20;97501.28;;;18.48;100.00
7614;BME280;3848;42.016;23.098;2023-06-22T03:34:47;97490.13;;;18.48;100.00
7614;BME280;3848;42.016;23.098;2023-06-22T03:37:14;97483.41;;;18.44;100.00
7614;BME280;3848;42.016;23.098;2023-06-22T03:39:41;97497.84;;;18.48;100.00
7614;BME280;3848;42.016;23.098;2023-06-22T03:42:08;97503.75;;;18.51;100.00
7614;BME280;3848;42.016;23.098;2023-06-22T03:44:36;97510.63;;;18.51;100.00
7614;BME280;3848;42.016;23.098;2023-06-22T03:47:04;97515.59;;;18.57;100.00
7614;BME280;3848;42.016;23.098;2023-06-22T03:49:32;97516.38;;;18.59;100.00
7614;BME280;3848;42.016;23.098;2023-06-22T03:51:59;97516.31;;;18.61;100.00
7614;BME280;3848;42.016;23.098;2023-06-22T03:54:26;97519.53;;;18.67;100.00
7614;BME280;3848;42.016;23.098;2023-06-22T03:56:53;97517.75;;;18.69;100.00
7614;BME280;3848;42.016;23.098;2023-06-22T03:59:20;97523.28;;;18.83;100.00
7614;BME280;3848;42.016;23.098;2023-06-22T04:01:48;97534.25;;;18.88;100.00
7614;BME280;3848;42.016;23.098;2023-06-22T04:04:16;97533.34;;;18.89;100.00
7614;BME280;3848;42.016;23.098;2023-06-22T04:06:43;97540.97;;;18.93;100.00
7614;BME280;3848;42.016;23.098;2023-06-22T04:09:09;97542.63;;;18.95;100.00
7614;BME280;3848;42.016;23.098;2023-06-22T04:11:36;97544.03;;;19.04;100.00
7614;BME280;3848;42.016;23.098;2023-06-22T04:14:03;97548.00;;;19.12;100.00
7614;BME280;3848;42.016;23.098;2023-06-22T04:16:30;97548.72;;;19.17;100.00
7614;BME280;3848;42.016;23.098;2023-06-22T04:18:58;97551.84;;;19.26;100.00
7614;BME280;3848;42.016;23.098;2023-06-22T04:21:25;97543.94;;;19.30;100.00
7614;BME280;3848;42.016;23.098;2023-06-22T04:23:51;97554.88;;;19.37;100.00
7614;BME280;3848;42.016;23.098;2023-06-22T04:26:18;97548.72;;;19.41;100.00
7614;BME280;3848;42.016;23.098;2023-06-22T04:28:46;97544.22;;;19.46;100.00
7614;BME280;3848;42.016;23.098;2023-06-22T04:31:17;97548.41;;;19.48;100.00
7614;BME280;3848;42.016;23.098;2023-06-22T04:33:43;97558.63;;;19.52;100.00
7614;BME280;3848;42.016;23.098;2023-06-22T04:36:11;97556.03;;;19.52;100.00
7614;BME280;3848;42.016;23.098;2023-06-22T04:38:39;97555.88;;;19.58;100.00
7614;BME280;3848;42.016;23.098;2023-06-22T04:41:05;97544.69;;;19.57;100.00
7614;BME280;3848;42.016;23.098;2023-06-22T04:43:34;97547.47;;;19.51;100.00
7614;BME280;3848;42.016;23.098;2023-06-22T04:46:01;97547.41;;;19.53;100.00
7614;BME280;3848;42.016;23.098;2023-06-22T04:48:29;97548.13;;;19.58;100.00
7614;BME280;3848;42.016;23.098;2023-06-22T04:50:58;97539.59;;;19.56;100.00
7614;BME280;3848;42.016;23.098;2023-06-22T04:53:31;97562.16;;;19.72;100.00
7614;BME280;3848;42.016;23.098;2023-06-22T04:55:58;97556.81;;;19.77;100.00
7614;BME280;3848;42.016;23.098;2023-06-22T04:58:25;97510.53;;;19.50;100.00
7614;BME280;3848;42.016;23.098;2023-06-22T05:00:54;97563.38;;;19.86;100.00
7614;BME280;3848;42.016;23.098;2023-06-22T05:03:22;97559.78;;;19.90;100.00
7614;BME280;3848;42.016;23.098;2023-06-22T05:05:51;97519.53;;;19.64;100.00
7614;BME280;3848;42.016;23.098;2023-06-22T05:08:19;97566.16;;;20.03;100.00
7614;BME280;3848;42.016;23.098;2023-06-22T05:10:47;97573.00;;;20.04;100.00
7614;BME280;3848;42.016;23.098;2023-06-22T05:13:14;97561.84;;;20.03;100.00
7614;BME280;3848;42.016;23.098;2023-06-22T05:15:40;97558.25;;;20.07;100.00
7614;BME280;3848;42.016;23.098;2023-06-22T05:18:07;97558.13;;;20.10;100.00
7614;BME280;3848;42.016;23.098;2023-06-22T05:20:34;97562.13;;;20.18;100.00
7614;BME280;3848;42.016;23.098;2023-06-22T05:23:01;97556.88;;;20.21;100.00
7614;BME280;3848;42.016;23.098;2023-06-22T05:25:28;97560.44;;;20.38;100.00
7614;BME280;3848;42.016;23.098;2023-06-22T05:27:59;97557.72;;;20.43;100.00
7614;BME280;3848;42.016;23.098;2023-06-22T05:30:27;97558.44;;;20.47;100.00
7614;BME280;3848;42.016;23.098;2023-06-22T05:32:53;97555.72;;;20.50;100.00
7614;BME280;3848;42.016;23.098;2023-06-22T05:35:20;97550.28;;;20.56;100.00
7614;BME280;3848;42.016;23.098;2023-06-22T05:37:47;97555.94;;;20.65;100.00
7614;BME280;3848;42.016;23.098;2023-06-22T05:40:14;97540.16;;;20.72;100.00
7614;BME280;3848;42.016;23.098;2023-06-22T05:42:41;97543.16;;;20.83;100.00
7614;BME280;3848;42.016;23.098;2023-06-22T05:45:09;97555.03;;;20.87;100.00
7614;BME280;3848;42.016;23.098;2023-06-22T05:47:36;97543.72;;;20.89;100.00
7614;BME280;3848;42.016;23.098;2023-06-22T05:50:04;97560.25;;;21.06;100.00
7614;BME280;3848;42.016;23.098;2023-06-22T05:52:33;97561.38;;;21.19;100.00
7614;BME280;3848;42.016;23.098;2023-06-22T05:55:02;97424.81;;;20.52;100.00
7614;BME280;3848;42.016;23.098;2023-06-22T05:57:29;97547.34;;;21.45;100.00
7614;BME280;3848;42.016;23.098;2023-06-22T05:59:56;97543.16;;;21.61;100.00
7614;BME280;3848;42.016;23.098;2023-06-22T06:02:24;97545.34;;;21.70;100.00
7614;BME280;3848;42.016;23.098;2023-06-22T06:04:51;97547.16;;;21.68;100.00
7614;BME280;3848;42.016;23.098;2023-06-22T06:07:18;97510.09;;;21.49;100.00
7614;BME280;3848;42.016;23.098;2023-06-22T06:09:45;97545.59;;;21.83;100.00
7614;BME280;3848;42.016;23.098;2023-06-22T06:12:37;97540.97;;;21.89;100.00
7614;BME280;3848;42.016;23.098;2023-06-22T06:15:10;97547.38;;;22.00;100.00
7614;BME280;3848;42.016;23.098;2023-06-22T06:17:46;97545.78;;;22.16;100.00
7614;BME280;3848;42.016;23.098;2023-06-22T06:20:13;97540.72;;;22.32;100.00
7614;BME280;3848;42.016;23.098;2023-06-22T06:22:40;97549.28;;;22.51;100.00
7614;BME280;3848;42.016;23.098;2023-06-22T06:25:08;97550.78;;;22.72;100.00
7614;BME280;3848;42.016;23.098;2023-06-22T06:27:35;97541.59;;;22.84;100.00
7614;BME280;3848;42.016;23.098;2023-06-22T06:30:02;97545.41;;;22.94;100.00
7614;BME280;3848;42.016;23.098;2023-06-22T06:32:29;97550.09;;;23.03;100.00
7614;BME280;3848;42.016;23.098;2023-06-22T06:34:57;97546.97;;;23.14;100.00
7614;BME280;3848;42.016;23.098;2023-06-22T06:37:24;97537.44;;;23.30;100.00
7614;BME280;3848;42.016;23.098;2023-06-22T06:39:51;97528.28;;;23.40;100.00
7614;BME280;3848;42.016;23.098;2023-06-22T06:42:18;97539.16;;;23.47;100.00
7614;BME280;3848;42.016;23.098;2023-06-22T06:44:48;97504.09;;;23.40;100.00
7614;BME280;3848;42.016;23.098;2023-06-22T06:47:15;97535.88;;;23.77;100.00
7614;BME280;3848;42.016;23.098;2023-06-22T06:49:42;97544.06;;;23.85;100.00
7614;BME280;3848;42.016;23.098;2023-06-22T06:52:10;97538.72;;;23.88;100.00
7614;BME280;3848;42.016;23.098;2023-06-22T06:54:37;97524.97;;;23.86;100.00
7614;BME280;3848;42.016;23.098;2023-06-22T06:57:04;97537.97;;;24.01;100.00
7614;BME280;3848;42.016;23.098;2023-06-22T06:59:31;97524.63;;;24.08;100.00
7614;BME280;3848;42.016;23.098;2023-06-22T07:01:58;97513.41;;;24.07;100.00
7614;BME280;3848;42.016;23.098;2023-06-22T07:04:25;97511.78;;;24.20;100.00
7614;BME280;3848;42.016;23.098;2023-06-22T07:06:51;97510.59;;;24.26;100.00
7614;BME280;3848;42.016;23.098;2023-06-22T07:09:19;97513.03;;;24.45;100.00
7614;BME280;3848;42.016;23.098;2023-06-22T07:11:46;97514.66;;;24.61;100.00
7614;BME280;3848;42.016;23.098;2023-06-22T07:14:13;97516.97;;;24.66;100.00
7614;BME280;3848;42.016;23.098;2023-06-22T07:16:40;97517.81;;;24.67;100.00
7614;BME280;3848;42.016;23.098;2023-06-22T07:19:07;97516.25;;;24.78;100.00
7614;BME280;3848;42.016;23.098;2023-06-22T07:21:34;97517.56;;;24.85;100.00
7614;BME280;3848;42.016;23.098;2023-06-22T07:24:01;97509.66;;;24.87;100.00
7614;BME280;3848;42.016;23.098;2023-06-22T07:26:29;97508.28;;;24.96;100.00
7614;BME280;3848;42.016;23.098;2023-06-22T07:28:55;97499.69;;;25.09;100.00
7614;BME280;3848;42.016;23.098;2023-06-22T07:31:23;97505.81;;;25.22;100.00
7614;BME280;3848;42.016;23.098;2023-06-22T07:33:50;97507.75;;;25.33;100.00
7614;BME280;3848;42.016;23.098;2023-06-22T07:36:17;97502.16;;;25.39;100.00
7614;BME280;3848;42.016;23.098;2023-06-22T07:38:44;97503.09;;;25.52;100.00
7614;BME280;3848;42.016;23.098;2023-06-22T07:41:11;97504.00;;;25.66;100.00
7614;BME280;3848;42.016;23.098;2023-06-22T07:43:40;97501.47;;;25.78;100.00
7614;BME280;3848;42.016;23.098;2023-06-22T07:46:07;97502.47;;;25.90;100.00
7614;BME280;3848;42.016;23.098;2023-06-22T07:48:36;97487.06;;;26.00;99.09
7614;BME280;3848;42.016;23.098;2023-06-22T07:51:04;97475.44;;;26.05;100.00
7614;BME280;3848;42.016;23.098;2023-06-22T07:53:32;97483.88;;;26.36;96.53
7614;BME280;3848;42.016;23.098;2023-06-22T07:55:59;97483.09;;;26.48;92.03
7614;BME280;3848;42.016;23.098;2023-06-22T07:58:26;97478.06;;;26.58;100.00
7614;BME280;3848;42.016;23.098;2023-06-22T08:00:54;97482.38;;;26.71;100.00
7614;BME280;3848;42.016;23.098;2023-06-22T08:03:21;97476.13;;;26.87;100.00
7614;BME280;3848;42.016;23.098;2023-06-22T08:05:48;97458.69;;;27.00;100.00
7614;BME280;3848;42.016;23.098;2023-06-22T08:08:15;97473.69;;;27.34;93.57
7614;BME280;3848;42.016;23.098;2023-06-22T08:10:42;97460.16;;;27.53;88.62
7614;BME280;3848;42.016;23.098;2023-06-22T08:13:10;97452.72;;;27.73;91.02
7614;BME280;3848;42.016;23.098;2023-06-22T08:15:37;97464.53;;;27.89;84.73
7614;BME280;3848;42.016;23.098;2023-06-22T08:18:05;97450.09;;;27.97;86.54
7614;BME280;3848;42.016;23.098;2023-06-22T08:20:32;97462.97;;;28.11;86.97
7614;BME280;3848;42.016;23.098;2023-06-22T08:22:58;97456.84;;;28.23;82.92
7614;BME280;3848;42.016;23.098;2023-06-22T08:25:31;97457.69;;;28.23;81.54
7614;BME280;3848;42.016;23.098;2023-06-22T08:27:58;97464.78;;;28.45;84.95
7614;BME280;3848;42.016;23.098;2023-06-22T08:30:25;97455.56;;;28.64;87.66
7614;BME280;3848;42.016;23.098;2023-06-22T08:32:52;97448.56;;;28.75;79.11
7614;BME280;3848;42.016;23.098;2023-06-22T08:35:21;97445.75;;;28.90;85.81
7614;BME280;3848;42.016;23.098;2023-06-22T08:37:48;97451.22;;;29.09;78.64
7614;BME280;3848;42.016;23.098;2023-06-22T08:40:18;97448.72;;;29.07;76.98
7614;BME280;3848;42.016;23.098;2023-06-22T08:42:45;97441.56;;;29.09;74.94
7614;BME280;3848;42.016;23.098;2023-06-22T08:45:13;97439.88;;;29.31;77.21
7614;BME280;3848;42.016;23.098;2023-06-22T08:47:40;97433.22;;;29.60;97.93
7614;BME280;3848;42.016;23.098;2023-06-22T08:50:08;97430.28;;;29.86;74.80
7614;BME280;3848;42.016;23.098;2023-06-22T08:52:37;97415.56;;;30.06;83.05
7614;BME280;3848;42.016;23.098;2023-06-22T08:55:04;97420.63;;;30.18;69.47
7614;BME280;3848;42.016;23.098;2023-06-22T08:57:31;97408.97;;;30.32;83.92
7614;BME280;3848;42.016;23.098;2023-06-22T08:59:58;97410.22;;;30.58;72.94
7614;BME280;3848;42.016;23.098;2023-06-22T09:02:25;97408.84;;;30.75;68.61
7614;BME280;3848;42.016;23.098;2023-06-22T09:04:56;97414.72;;;30.88;70.20
7614;BME280;3848;42.016;23.098;2023-06-22T09:07:23;97409.59;;;31.17;74.15
7614;BME280;3848;42.016;23.098;2023-06-22T09:09:51;97404.56;;;31.45;70.66
7614;BME280;3848;42.016;23.098;2023-06-22T09:12:20;97403.31;;;31.59;63.65
7614;BME280;3848;42.016;23.098;2023-06-22T09:14:51;97398.06;;;31.49;61.52
7614;BME280;3848;42.016;23.098;2023-06-22T09:17:18;97388.09;;;31.52;63.13
7614;BME280;3848;42.016;23.098;2023-06-22T09:19:45;97390.72;;;31.62;62.24
7614;BME280;3848;42.016;23.098;2023-06-22T09:22:11;97376.75;;;31.62;68.02
7614;BME280;3848;42.016;23.098;2023-06-22T09:24:38;97381.72;;;31.65;61.67
7614;BME280;3848;42.016;23.098;2023-06-22T09:27:06;97381.03;;;31.63;60.64
7614;BME280;3848;42.016;23.098;2023-06-22T09:29:33;97387.25;;;31.62;58.64
7614;BME280;3848;42.016;23.098;2023-06-22T09:32:00;97381.47;;;31.48;62.05
7614;BME280;3848;42.016;23.098;2023-06-22T09:34:27;97386.81;;;31.37;60.01
7614;BME280;3848;42.016;23.098;2023-06-22T09:36:54;97385.47;;;31.62;64.90
7614;BME280;3848;42.016;23.098;2023-06-22T09:39:22;97385.91;;;32.06;64.67
7614;BME280;3848;42.016;23.098;2023-06-22T09:41:49;97373.44;;;32.37;62.16
7614;BME280;3848;42.016;23.098;2023-06-22T09:44:18;97377.03;;;32.83;63.22
7614;BME280;3848;42.016;23.098;2023-06-22T09:46:45;97382.28;;;33.20;59.93
7614;BME280;3848;42.016;23.098;2023-06-22T09:49:11;97374.97;;;33.41;56.88
7614;BME280;3848;42.016;23.098;2023-06-22T09:51:38;97377.53;;;33.51;61.19
7614;BME280;3848;42.016;23.098;2023-06-22T09:54:05;97377.63;;;33.59;56.29
7614;BME280;3848;42.016;23.098;2023-06-22T09:56:32;97378.81;;;33.82;58.33
7614;BME280;3848;42.016;23.098;2023-06-22T09:58:58;97317.13;;;33.75;55.77
7614;BME280;3848;42.016;23.098;2023-06-22T10:01:27;97367.63;;;34.42;55.75
7614;BME280;3848;42.016;23.098;2023-06-22T10:03:55;97359.78;;;34.58;52.33
7614;BME280;3848;42.016;23.098;2023-06-22T10:06:22;97363.28;;;34.67;50.44
7614;BME280;3848;42.016;23.098;2023-06-22T10:08:50;97359.31;;;34.63;53.42
7614;BME280;3848;42.016;23.098;2023-06-22T10:11:17;97361.31;;;34.69;54.89
7614;BME280;3848;42.016;23.098;2023-06-22T10:13:44;97350.50;;;34.80;49.92
7614;BME280;3848;42.016;23.098;2023-06-22T10:16:11;97342.16;;;34.67;49.13
7614;BME280;3848;42.016;23.098;2023-06-22T10:18:39;97346.44;;;34.60;53.37
7614;BME280;3848;42.016;23.098;2023-06-22T10:21:06;97335.16;;;34.49;54.94
7614;BME280;3848;42.016;23.098;2023-06-22T10:23:33;97337.44;;;34.44;50.90
7614;BME280;3848;42.016;23.098;2023-06-22T10:25:59;97331.03;;;34.55;50.67
7614;BME280;3848;42.016;23.098;2023-06-22T10:28:26;97333.44;;;34.74;51.53
7614;BME280;3848;42.016;23.098;2023-06-22T10:30:53;97327.00;;;34.77;52.06
7614;BME280;3848;42.016;23.098;2023-06-22T10:33:20;97329.81;;;35.09;54.74
7614;BME280;3848;42.016;23.098;2023-06-22T10:35:48;97328.09;;;35.42;50.55
7614;BME280;3848;42.016;23.098;2023-06-22T10:38:15;97320.03;;;35.68;48.53
7614;BME280;3848;42.016;23.098;2023-06-22T10:40:42;97318.88;;;35.95;50.52
7614;BME280;3848;42.016;23.098;2023-06-22T10:43:08;97312.72;;;36.19;50.93
7614;BME280;3848;42.016;23.098;2023-06-22T10:45:35;97308.06;;;36.46;49.36
7614;BME280;3848;42.016;23.098;2023-06-22T10:48:02;97308.63;;;36.72;46.23
7614;BME280;3848;42.016;23.098;2023-06-22T10:50:29;97305.28;;;36.78;47.15
7614;BME280;3848;42.016;23.098;2023-06-22T10:52:57;97293.56;;;36.64;46.25
7614;BME280;3848;42.016;23.098;2023-06-22T10:55:24;97296.22;;;36.64;45.65
7614;BME280;3848;42.016;23.098;2023-06-22T10:57:51;97296.47;;;36.47;45.50
7614;BME280;3848;42.016;23.098;2023-06-22T11:00:18;97293.44;;;36.66;45.76
7614;BME280;3848;42.016;23.098;2023-06-22T11:02:45;97279.09;;;36.91;45.74
7614;BME280;3848;42.016;23.098;2023-06-22T11:05:11;97250.94;;;36.90;45.27
7614;BME280;3848;42.016;23.098;2023-06-22T11:07:41;97278.22;;;37.22;43.73
7614;BME280;3848;42.016;23.098;2023-06-22T11:10:10;97278.66;;;37.11;42.52
7614;BME280;3848;42.016;23.098;2023-06-22T11:12:37;97273.56;;;37.24;41.45
7614;BME280;3848;42.016;23.098;2023-06-22T11:15:05;97258.47;;;37.02;40.70
7614;BME280;3848;42.016;23.098;2023-06-22T11:17:32;97265.47;;;37.26;41.75
7614;BME280;3848;42.016;23.098;2023-06-22T11:19:59;97257.84;;;37.45;41.38
7614;BME280;3848;42.016;23.098;2023-06-22T11:22:26;97266.59;;;37.69;40.71
7614;BME280;3848;42.016;23.098;2023-06-22T11:24:53;97267.94;;;37.73;40.01
7614;BME280;3848;42.016;23.098;2023-06-22T11:27:21;97265.66;;;37.84;39.17
7614;BME280;3848;42.016;23.098;2023-06-22T11:29:48;97261.50;;;37.90;37.81
7614;BME280;3848;42.016;23.098;2023-06-22T11:32:15;97251.22;;;37.64;38.93
7614;BME280;3848;42.016;23.098;2023-06-22T11:34:42;97248.47;;;37.80;38.52
7614;BME280;3848;42.016;23.098;2023-06-22T11:37:09;97242.34;;;37.57;37.89
7614;BME280;3848;42.016;23.098;2023-06-22T11:39:36;97244.53;;;37.76;40.94
7614;BME280;3848;42.016;23.098;2023-06-22T11:42:03;97234.59;;;37.93;38.14
7614;BME280;3848;42.016;23.098;2023-06-22T11:44:31;97236.28;;;37.86;38.70
7614;BME280;3848;42.016;23.098;2023-06-22T11:46:58;97244.19;;;37.94;38.80
7614;BME280;3848;42.016;23.098;2023-06-22T11:49:26;97240.53;;;38.10;39.71
7614;BME280;3848;42.016;23.098;2023-06-22T11:51:53;97244.84;;;38.26;38.36
7614;BME280;3848;42.016;23.098;2023-06-22T11:54:20;97250.25;;;38.47;38.74
7614;BME280;3848;42.016;23.098;2023-06-22T11:56:47;97249.59;;;38.60;37.85
7614;BME280;3848;42.016;23.098;2023-06-22T11:59:13;97244.19;;;38.83;37.47
7614;BME280;3848;42.016;23.098;2023-06-22T12:01:43;97243.56;;;38.51;37.37
7614;BME280;3848;42.016;23.098;2023-06-22T12:04:10;97242.94;;;38.34;37.79
7614;BME280;3848;42.016;23.098;2023-06-22T12:06:37;97243.84;;;38.41;39.09
7614;BME280;3848;42.016;23.098;2023-06-22T12:09:07;97242.09;;;38.63;39.16
7614;BME280;3848;42.016;23.098;2023-06-22T12:11:34;97235.78;;;38.64;36.63
7614;BME280;3848;42.016;23.098;2023-06-22T12:14:00;97221.09;;;38.68;38.85
7614;BME280;3848;42.016;23.098;2023-06-22T12:16:28;97230.75;;;38.91;40.28
7614;BME280;3848;42.016;23.098;2023-06-22T12:18:56;97234.84;;;38.72;38.78
7614;BME280;3848;42.016;23.098;2023-06-22T12:21:23;97227.06;;;38.70;37.30
7614;BME280;3848;42.016;23.098;2023-06-22T12:23:49;97224.69;;;38.61;36.94
7614;BME280;3848;42.016;23.098;2023-06-22T12:26:16;97219.75;;;38.58;38.77
7614;BME280;3848;42.016;23.098;2023-06-22T12:28:43;97211.41;;;38.46;38.20
7614;BME280;3848;42.016;23.098;2023-06-22T12:31:10;97202.44;;;38.47;38.95
7614;BME280;3848;42.016;23.098;2023-06-22T12:33:37;97202.88;;;38.51;40.70
7614;BME280;3848;42.016;23.098;2023-06-22T12:36:05;97197.47;;;38.73;38.04
7614;BME280;3848;42.016;23.098;2023-06-22T12:38:32;97185.84;;;38.60;37.88
7614;BME280;3848;42.016;23.098;2023-06-22T12:40:59;97184.63;;;38.62;38.65
7614;BME280;3848;42.016;23.098;2023-06-22T12:43:26;97191.41;;;38.80;39.11
7614;BME280;3848;42.016;23.098;2023-06-22T12:45:52;97184.00;;;38.60;39.47
7614;BME280;3848;42.016;23.098;2023-06-22T12:48:20;97181.16;;;38.62;37.51
7614;BME280;3848;42.016;23.098;2023-06-22T12:50:46;97185.84;;;38.60;37.79
7614;BME280;3848;42.016;23.098;2023-06-22T12:53:15;97172.53;;;38.75;35.99
7614;BME280;3848;42.016;23.098;2023-06-22T12:55:42;97168.59;;;38.92;37.21
7614;BME280;3848;42.016;23.098;2023-06-22T12:58:09;97167.78;;;38.91;37.11
7614;BME280;3848;42.016;23.098;2023-06-22T13:00:36;97155.13;;;38.93;38.28
7614;BME280;3848;42.016;23.098;2023-06-22T13:03:02;97164.44;;;38.83;37.55
7614;BME280;3848;42.016;23.098;2023-06-22T13:05:29;97161.59;;;38.84;38.62
7614;BME280;3848;42.016;23.098;2023-06-22T13:07:57;97139.31;;;38.85;36.41